Time;durP1;ratioP1;P1;durP2;ratioP2;P2;SDS_P1;SDS_P2;PMS_P1;PMS_P2;Temp;Humidity;BMP_temperature;BMP_pressure;BME280_temperature;BME280_humidity;BME280_pressure;Samples;Min_cycle;Max_cycle;Signal;HPM_P1;HPM_P2
2022/03/22 00:02:23;;;;;;;0.00;0.00;;;10.10;54.30;;;;;;4130725;28;20109;-72
2022/03/22 00:04:45;;;;;;;0.00;0.00;;;10.10;54.20;;;;;;4117795;28;20370;-72
2022/03/22 00:07:08;;;;;;;0.00;0.00;;;10.10;54.30;;;;;;4117570;28;20725;-73
2022/03/22 00:09:33;;;;;;;0.00;0.00;;;10.00;54.30;;;;;;4104330;28;20102;-73
2022/03/22 00:11:57;;;;;;;0.00;0.00;;;9.90;54.50;;;;;;4117821;28;20081;-72
2022/03/22 00:14:20;;;;;;;0.00;0.00;;;9.80;54.80;;;;;;4130724;28;20046;-70
2022/03/22 00:17:04;;;;;;;0.00;0.00;;;9.80;55.00;;;;;;4131245;28;20049;-73
2022/03/22 00:19:49;;;;;;;0.00;0.00;;;9.80;55.30;;;;;;4131075;28;20408;-72
2022/03/22 00:22:11;;;;;;;0.00;0.00;;;9.70;55.30;;;;;;4103522;28;20048;-72
2022/03/22 00:24:35;;;;;;;0.00;0.00;;;9.70;55.40;;;;;;4104611;28;20454;-73
2022/03/22 00:26:59;;;;;;;0.00;0.00;;;9.70;55.40;;;;;;4104384;28;20078;-73
2022/03/22 00:29:24;;;;;;;0.00;0.00;;;9.70;55.30;;;;;;4116620;28;20039;-73
2022/03/22 00:31:46;;;;;;;0.00;0.00;;;9.80;55.10;;;;;;4130975;28;20105;-72
2022/03/22 00:34:13;;;;;;;0.00;0.00;;;9.80;55.00;;;;;;4087652;28;20071;-72
2022/03/22 00:36:35;;;;;;;0.00;0.00;;;9.80;54.90;;;;;;4105342;28;20047;-72
2022/03/22 00:38:57;;;;;;;0.00;0.00;;;9.60;54.80;;;;;;4103833;28;20047;-72
2022/03/22 00:41:19;;;;;;;0.00;0.00;;;9.60;54.80;;;;;;4103460;28;20110;-71
2022/03/22 00:43:46;;;;;;;0.00;0.00;;;9.60;54.60;;;;;;4117156;28;20050;-73
2022/03/22 00:46:11;;;;;;;0.00;0.00;;;9.60;54.40;;;;;;4117080;28;20051;-69
2022/03/22 00:48:41;;;;;;;0.00;0.00;;;9.60;54.20;;;;;;4116985;28;20047;-71
2022/03/22 00:51:04;;;;;;;0.00;0.00;;;9.50;54.00;;;;;;4117093;28;20052;-72
2022/03/22 00:53:28;;;;;;;0.00;0.00;;;9.50;53.90;;;;;;4117012;28;20051;-71
2022/03/22 00:55:50;;;;;;;0.00;0.00;;;9.40;54.00;;;;;;4090334;28;20063;-73
2022/03/22 00:58:13;;;;;;;0.00;0.00;;;9.20;54.30;;;;;;4116711;28;20470;-74
2022/03/22 01:00:38;;;;;;;0.00;0.00;;;9.20;54.50;;;;;;4116698;28;20039;-71
2022/03/22 01:03:05;;;;;;;0.00;0.00;;;9.20;54.40;;;;;;4116960;28;20046;-71
2022/03/22 01:05:31;;;;;;;0.00;0.00;;;9.20;54.20;;;;;;4116767;28;20055;-72
2022/03/22 01:08:10;;;;;;;0.00;0.00;;;9.20;54.00;;;;;;4116905;28;20519;-71
2022/03/22 01:10:51;;;;;;;0.00;0.00;;;9.20;53.80;;;;;;4116969;28;20125;-73
2022/03/22 01:13:16;;;;;;;0.00;0.00;;;9.30;53.60;;;;;;4130208;28;20058;-71
2022/03/22 01:15:42;;;;;;;0.00;0.00;;;9.30;53.60;;;;;;4103265;28;20055;-71
2022/03/22 01:18:13;;;;;;;0.00;0.00;;;9.30;53.60;;;;;;4091093;28;20093;-72
2022/03/22 01:20:47;;;;;;;0.00;0.00;;;9.30;53.80;;;;;;4116642;28;20046;-71
2022/03/22 01:23:19;;;;;;;0.00;0.00;;;9.20;54.20;;;;;;4117321;28;20051;-71
2022/03/22 01:25:43;;;;;;;0.00;0.00;;;9.20;54.30;;;;;;4103068;28;20442;-73
2022/03/22 01:28:13;;;;;;;0.00;0.00;;;9.10;54.30;;;;;;4100122;28;20065;-71
2022/03/22 01:30:43;;;;;;;0.00;0.00;;;9.10;54.20;;;;;;4101151;28;20066;-73
2022/03/22 01:33:08;;;;;;;0.00;0.00;;;9.10;54.20;;;;;;4087263;29;20055;-73
2022/03/22 01:35:33;;;;;;;0.00;0.00;;;9.10;54.20;;;;;;4087224;29;20106;-73
2022/03/22 01:37:59;;;;;;;0.00;0.00;;;9.00;54.20;;;;;;4087036;29;20083;-74
2022/03/22 01:40:28;;;;;;;;;;;8.90;54.30;;;;;;4100364;28;20051;-71
2022/03/22 01:42:55;;;;;;;0.00;0.00;;;8.90;54.50;;;;;;4087511;29;19929;-72
2022/03/22 01:45:28;;;;;;;0.00;0.00;;;8.90;54.50;;;;;;4075466;29;20074;-71
2022/03/22 01:47:52;;;;;;;0.00;0.00;;;8.90;54.40;;;;;;4074234;29;20522;-72
2022/03/22 01:50:19;;;;;;;0.00;0.00;;;8.90;54.00;;;;;;4086277;28;20064;-71
2022/03/22 01:52:56;;;;;;;0.00;0.00;;;8.90;53.80;;;;;;4088541;29;20058;-73
2022/03/22 01:55:19;;;;;;;0.00;0.00;;;8.90;53.70;;;;;;4100261;28;20063;-73
2022/03/22 01:57:48;;;;;;;0.00;0.00;;;8.90;53.70;;;;;;4100812;28;20129;-72
2022/03/22 02:00:19;;;;;;;0.00;0.00;;;8.80;53.90;;;;;;4100355;28;20454;-71
2022/03/22 02:05:58;;;;;;;0.00;0.00;;;8.70;53.90;;;;;;4116706;28;20053;-72
2022/03/22 02:08:30;;;;;;;0.00;0.00;;;8.60;53.90;;;;;;4116235;28;20058;-73
2022/03/22 02:11:01;;;;;;;0.00;0.00;;;8.60;54.10;;;;;;4129332;28;20047;-72
2022/03/22 02:13:31;;;;;;;0.00;0.00;;;8.50;54.10;;;;;;4090504;28;20055;-73
2022/03/22 02:15:58;;;;;;;0.00;0.00;;;8.50;54.20;;;;;;4102718;28;20085;-72
2022/03/22 02:18:25;;;;;;;0.00;0.00;;;8.50;54.40;;;;;;4116080;28;20055;-72
2022/03/22 02:20:48;;;;;;;0.00;0.00;;;8.40;54.50;;;;;;4128891;28;20085;-71
2022/03/22 02:23:22;;;;;;;0.00;0.00;;;8.40;54.70;;;;;;4102564;28;20074;-73
2022/03/22 02:25:49;;;;;;;0.00;0.00;;;8.30;54.90;;;;;;4102438;28;20051;-73
2022/03/22 02:28:14;;;;;;;0.00;0.00;;;8.30;54.90;;;;;;4075407;28;20056;-73
2022/03/22 02:30:39;;;;;;;0.00;0.00;;;8.30;55.00;;;;;;4129101;28;20070;-72
2022/03/22 02:33:04;;;;;;;0.00;0.00;;;8.30;55.00;;;;;;4129295;28;20056;-72
2022/03/22 02:35:28;;;;;;;0.00;0.00;;;8.30;55.00;;;;;;4115481;28;20100;-74
2022/03/22 02:37:53;;;;;;;0.00;0.00;;;8.20;55.00;;;;;;4128972;28;20042;-74
2022/03/22 02:40:22;;;;;;;0.00;0.00;;;8.20;55.00;;;;;;4099842;28;20050;-75
2022/03/22 02:42:49;;;;;;;0.00;0.00;;;8.10;55.00;;;;;;4118302;28;20128;-74
2022/03/22 02:45:15;;;;;;;0.00;0.00;;;8.10;55.00;;;;;;4115265;28;20060;-72
2022/03/22 02:47:39;;;;;;;0.00;0.00;;;8.00;55.10;;;;;;4115274;28;20051;-73
2022/03/22 02:50:01;;;;;;;0.00;0.00;;;7.90;55.20;;;;;;4115454;28;20051;-73
2022/03/22 02:52:27;;;;;;;0.00;0.00;;;7.90;55.20;;;;;;4101256;28;20115;-72
2022/03/22 02:54:49;;;;;;;0.00;0.00;;;7.90;55.30;;;;;;4129010;28;20069;-72
2022/03/22 02:57:11;;;;;;;0.00;0.00;;;8.00;55.30;;;;;;4101988;28;20047;-73
2022/03/22 02:59:33;;;;;;;0.00;0.00;;;7.90;55.30;;;;;;4102059;28;20043;-74
2022/03/22 03:01:57;;;;;;;0.00;0.00;;;7.90;55.50;;;;;;4128669;28;20113;-71
2022/03/22 03:04:24;;;;;;;0.00;0.00;;;7.90;55.70;;;;;;4114875;28;20113;-73
2022/03/22 03:06:49;;;;;;;0.00;0.00;;;7.90;55.80;;;;;;4115306;28;20047;-73
2022/03/22 03:09:11;;;;;;;0.00;0.00;;;7.90;55.90;;;;;;4101967;28;20043;-71
2022/03/22 03:11:38;;;;;;;0.00;0.00;;;7.90;55.80;;;;;;4102034;28;20043;-72
2022/03/22 03:16:47;;;;;;;0.00;0.00;;;7.90;55.60;;;;;;4090626;28;20078;-72
2022/03/22 03:19:09;;;;;;;0.00;0.00;;;7.90;55.60;;;;;;4128953;28;20046;-71
2022/03/22 03:21:36;;;;;;;0.00;0.00;;;7.90;55.60;;;;;;4128867;28;20046;-73
2022/03/22 03:23:58;;;;;;;0.00;0.00;;;7.90;55.60;;;;;;4088309;28;20086;-72
2022/03/22 03:26:23;;;;;;;0.00;0.00;;;7.90;55.50;;;;;;4128376;28;20089;-71
2022/03/22 03:28:46;;;;;;;0.00;0.00;;;7.90;55.30;;;;;;4101797;28;20130;-71
2022/03/22 03:31:08;;;;;;;0.00;0.00;;;7.90;55.20;;;;;;4101611;28;20408;-71
2022/03/22 03:33:32;;;;;;;0.00;0.00;;;7.90;55.10;;;;;;4128847;28;20060;-72
2022/03/22 03:35:56;;;;;;;0.00;0.00;;;7.90;55.00;;;;;;4128624;28;20054;-71
2022/03/22 03:38:20;;;;;;;0.00;0.00;;;7.80;54.90;;;;;;4114833;28;20054;-71
2022/03/22 03:43:27;;;;;;;0.00;0.00;;;7.60;55.20;;;;;;4101693;28;20404;-72
2022/03/22 03:48:37;;;;;;;0.00;0.00;;;7.40;55.50;;;;;;4101347;28;20047;-72
2022/03/22 03:51:04;;;;;;;0.00;0.00;;;7.50;55.40;;;;;;4101729;28;20055;-71
2022/03/22 03:53:26;;;;;;;0.00;0.00;;;7.50;55.40;;;;;;4128545;28;20054;-73
2022/03/22 03:55:51;;;;;;;0.00;0.00;;;7.50;55.30;;;;;;4101864;28;20047;-71
2022/03/22 03:58:15;;;;;;;0.00;0.00;;;7.60;55.50;;;;;;4100068;28;20059;-71
2022/03/22 04:00:40;;;;;;;0.00;0.00;;;7.60;55.40;;;;;;4115442;28;20077;-71
2022/03/22 04:03:02;;;;;;;0.00;0.00;;;7.50;55.40;;;;;;4114843;28;20061;-72
2022/03/22 04:05:27;;;;;;;0.00;0.00;;;7.50;55.50;;;;;;4131717;28;20046;-71
2022/03/22 04:07:49;;;;;;;0.00;0.00;;;7.40;55.40;;;;;;4091163;28;20147;-72
2022/03/22 04:10:11;;;;;;;0.00;0.00;;;7.40;55.40;;;;;;4104385;28;20370;-72
2022/03/22 04:12:42;;;;;;;0.00;0.00;;;7.40;55.20;;;;;;4118136;28;20046;-72
2022/03/22 04:15:07;;;;;;;0.00;0.00;;;7.50;55.10;;;;;;4117758;28;20061;-72
2022/03/22 04:17:30;;;;;;;0.00;0.00;;;7.40;55.00;;;;;;4117886;28;20046;-71
2022/03/22 04:19:54;;;;;;;0.00;0.00;;;7.30;55.10;;;;;;4104363;28;20062;-72
2022/03/22 04:22:23;;;;;;;0.00;0.00;;;7.30;55.20;;;;;;4103833;28;20461;-71
2022/03/22 04:24:45;;;;;;;0.00;0.00;;;7.30;55.30;;;;;;4130926;28;20121;-75
2022/03/22 04:32:41;;;;;;;0.00;0.00;;;7.40;55.20;;;;;;4103703;28;20103;-72
2022/03/22 04:35:04;;;;;;;0.00;0.00;;;7.20;55.40;;;;;;4117633;28;20058;-71
2022/03/22 04:37:26;;;;;;;0.00;0.00;;;7.00;56.00;;;;;;4103917;28;20118;-69
2022/03/22 04:39:48;;;;;;;0.00;0.00;;;6.90;56.20;;;;;;4117414;28;20089;-74
2022/03/22 04:42:15;;;;;;;0.00;0.00;;;7.00;56.30;;;;;;4116805;28;20360;-72
2022/03/22 04:44:38;;;;;;;0.00;0.00;;;7.10;56.50;;;;;;4117323;28;20155;-73
2022/03/22 04:47:05;;;;;;;0.00;0.00;;;7.00;56.80;;;;;;4117397;28;20038;-72
2022/03/22 04:49:34;;;;;;;0.00;0.00;;;7.10;57.70;;;;;;4103700;28;20204;-72
2022/03/22 04:57:18;;;;;;;0.00;0.00;;;6.70;59.60;;;;;;4114428;28;20105;-71
2022/03/22 04:59:43;;;;;;;0.00;0.00;;;6.70;59.40;;;;;;4114346;28;20043;-71
2022/03/22 05:02:08;;;;;;;0.00;0.00;;;6.70;59.40;;;;;;4113944;28;20097;-71
2022/03/22 05:04:31;;;;;;;0.00;0.00;;;6.60;59.70;;;;;;4117729;28;20130;-70
2022/03/22 05:06:57;;;;;;;0.00;0.00;;;6.60;59.90;;;;;;4077563;28;20082;-71
2022/03/22 05:09:24;;;;;;;0.00;0.00;;;6.60;59.90;;;;;;4103393;28;20055;-72
2022/03/22 05:11:49;;;;;;;0.00;0.00;;;6.70;59.80;;;;;;4103326;28;20055;-72
2022/03/22 05:14:13;;;;;;;0.00;0.00;;;6.60;59.80;;;;;;4101141;28;20059;-74
2022/03/22 05:16:40;;;;;;;0.00;0.00;;;6.70;59.80;;;;;;4130300;28;20495;-69
2022/03/22 05:19:05;;;;;;;0.00;0.00;;;6.60;59.40;;;;;;4130187;28;20126;-72
2022/03/22 05:21:27;;;;;;;0.00;0.00;;;6.60;59.50;;;;;;4130108;28;20072;-70
2022/03/22 05:23:50;;;;;;;0.00;0.00;;;6.50;59.40;;;;;;4103381;28;20086;-72
2022/03/22 05:26:17;;;;;;;0.00;0.00;;;6.50;58.80;;;;;;4102775;28;20051;-70
2022/03/22 05:28:40;;;;;;;0.00;0.00;;;6.50;58.70;;;;;;4102877;28;20051;-70
2022/03/22 05:31:09;;;;;;;0.00;0.00;;;6.50;58.60;;;;;;4108927;28;20051;-72
2022/03/22 05:33:31;;;;;;;0.00;0.00;;;6.50;58.30;;;;;;4114170;28;20120;-72
2022/03/22 05:35:53;;;;;;;0.00;0.00;;;6.50;58.10;;;;;;4087619;28;20062;-71
2022/03/22 05:38:17;;;;;;;0.00;0.00;;;6.50;58.10;;;;;;4114070;28;20042;-73
2022/03/22 05:40:42;;;;;;;0.00;0.00;;;6.60;58.00;;;;;;4114399;28;20600;-71
2022/03/22 05:43:04;;;;;;;0.00;0.00;;;6.70;57.90;;;;;;4101051;28;20075;-71
2022/03/22 05:45:29;;;;;;;0.00;0.00;;;6.80;57.80;;;;;;4082783;29;20064;-70
2022/03/22 05:47:51;;;;;;;0.00;0.00;;;6.80;57.80;;;;;;4101439;28;20472;-70
2022/03/22 05:50:16;;;;;;;0.00;0.00;;;6.80;57.80;;;;;;4116291;28;20428;-71
2022/03/22 05:52:47;;;;;;;0.00;0.00;;;6.80;57.70;;;;;;4116425;28;20094;-71
2022/03/22 05:55:13;;;;;;;0.00;0.00;;;6.80;57.40;;;;;;4103004;28;20389;-70
2022/03/22 05:57:37;;;;;;;0.00;0.00;;;6.90;57.30;;;;;;4116625;28;20042;-72
2022/03/22 06:00:05;;;;;;;0.00;0.00;;;7.00;57.30;;;;;;4130070;28;20046;-69
2022/03/22 06:02:27;;;;;;;0.00;0.00;;;7.10;56.90;;;;;;4102499;28;20099;-70
2022/03/22 06:04:51;;;;;;;0.00;0.00;;;7.20;56.50;;;;;;4090031;28;20051;-70
2022/03/22 06:07:13;;;;;;;0.00;0.00;;;7.40;56.20;;;;;;4116642;28;20046;-70
2022/03/22 06:09:37;;;;;;;0.00;0.00;;;7.40;55.80;;;;;;4103011;28;20051;-72
2022/03/22 06:12:01;;;;;;;0.00;0.00;;;7.30;55.90;;;;;;4116526;28;20051;-71
2022/03/22 06:14:26;;;;;;;0.00;0.00;;;7.60;56.10;;;;;;4076345;28;20063;-71
2022/03/22 06:16:52;;;;;;;0.00;0.00;;;7.80;56.10;;;;;;4102964;28;20054;-71
2022/03/22 06:19:17;;;;;;;0.00;0.00;;;7.90;56.50;;;;;;4129728;28;20046;-76
2022/03/22 06:21:41;;;;;;;0.00;0.00;;;8.10;55.70;;;;;;4102991;28;20491;-72
2022/03/22 06:24:06;;;;;;;0.00;0.00;;;8.20;55.20;;;;;;4102610;28;20043;-74
2022/03/22 06:26:32;;;;;;;0.00;0.00;;;8.40;55.30;;;;;;4115129;28;20520;-71
2022/03/22 06:28:55;;;;;;;0.00;0.00;;;8.40;55.10;;;;;;4102545;28;20055;-70
2022/03/22 06:31:20;;;;;;;0.00;0.00;;;8.60;55.50;;;;;;4089261;28;20438;-70
2022/03/22 06:33:42;;;;;;;0.00;0.00;;;8.80;55.30;;;;;;4116137;28;20078;-72
2022/03/22 06:36:08;;;;;;;0.00;0.00;;;8.80;55.20;;;;;;4129801;28;20129;-70
2022/03/22 06:38:35;;;;;;;0.00;0.00;;;8.70;55.30;;;;;;4129276;28;20049;-73
2022/03/22 06:40:58;;;;;;;0.00;0.00;;;8.90;55.10;;;;;;4129794;28;20043;-72
2022/03/22 06:43:23;;;;;;;0.00;0.00;;;9.10;54.70;;;;;;4102533;28;20078;-73
2022/03/22 06:45:49;;;;;;;0.00;0.00;;;9.30;54.80;;;;;;4102691;28;20413;-72
2022/03/22 06:48:12;;;;;;;0.00;0.00;;;9.40;54.50;;;;;;4100194;28;20051;-71
2022/03/22 06:50:37;;;;;;;0.00;0.00;;;9.60;54.50;;;;;;4086555;29;20055;-73
2022/03/22 06:53:02;;;;;;;0.00;0.00;;;9.70;54.70;;;;;;4086690;29;20090;-70
2022/03/22 06:55:26;;;;;;;0.00;0.00;;;9.80;54.70;;;;;;4086550;29;20058;-71
2022/03/22 06:57:56;;;;;;;0.00;0.00;;;10.00;54.50;;;;;;4086635;29;20047;-70
2022/03/22 07:00:22;;;;;;;0.00;0.00;;;9.80;55.40;;;;;;4072903;28;20044;-72
2022/03/22 07:02:47;;;;;;;0.00;0.00;;;9.90;55.60;;;;;;4086512;29;20054;-71
2022/03/22 07:05:13;;;;;;;0.00;0.00;;;10.20;55.70;;;;;;4087418;29;20048;-71
2022/03/22 07:07:38;;;;;;;0.00;0.00;;;10.20;55.40;;;;;;4086879;29;20058;-72
2022/03/22 07:10:00;;;;;;;0.00;0.00;;;9.80;56.90;;;;;;4073498;29;20043;-71
2022/03/22 07:12:22;;;;;;;0.00;0.00;;;9.70;57.60;;;;;;4059364;28;20044;-72
2022/03/22 07:14:44;;;;;;;0.00;0.00;;;9.60;58.50;;;;;;4086542;29;20154;-76
2022/03/22 07:17:10;;;;;;;0.00;0.00;;;9.60;58.30;;;;;;4086544;29;20470;-70
2022/03/22 07:19:34;;;;;;;0.00;0.00;;;9.90;58.30;;;;;;4086466;29;20051;-72
2022/03/22 07:22:02;;;;;;;0.00;0.00;;;10.30;57.60;;;;;;4085970;29;20063;-71
2022/03/22 07:24:27;;;;;;;0.00;0.00;;;10.70;56.30;;;;;;4069934;29;20060;-73
2022/03/22 07:26:49;;;;;;;0.00;0.00;;;10.80;56.10;;;;;;4084024;29;20106;-73
2022/03/22 07:29:13;;;;;;;0.00;0.00;;;11.20;55.70;;;;;;4070695;29;20062;-74
2022/03/22 07:31:39;;;;;;;0.00;0.00;;;11.60;54.90;;;;;;4083831;29;20056;-75
2022/03/22 07:34:01;;;;;;;0.00;0.00;;;11.70;53.70;;;;;;4084041;29;20052;-73
2022/03/22 07:36:23;;;;;;;0.00;0.00;;;11.60;54.00;;;;;;4095590;28;20046;-74
2022/03/22 07:39:09;;;;;;;0.00;0.00;;;11.90;53.60;;;;;;4120975;28;20175;-73
2022/03/22 07:41:34;;;;;;;0.00;0.00;;;12.00;52.90;;;;;;4108047;28;20061;-73
2022/03/22 07:43:56;;;;;;;0.00;0.00;;;12.10;52.00;;;;;;4121394;28;20038;-73
2022/03/22 07:46:18;;;;;;;0.00;0.00;;;11.80;52.80;;;;;;4106644;28;20102;-73
2022/03/22 07:48:47;;;;;;;0.00;0.00;;;12.00;52.70;;;;;;4121097;28;20102;-71
2022/03/22 07:53:52;;;;;;;0.00;0.00;;;13.00;51.90;;;;;;4118719;28;20110;-71
2022/03/22 07:56:21;;;;;;;0.00;0.00;;;13.40;50.80;;;;;;4104711;28;20568;-72
2022/03/22 07:58:43;;;;;;;0.00;0.00;;;13.40;50.80;;;;;;4105005;28;20051;-73
2022/03/22 08:01:07;;;;;;;0.00;0.00;;;13.70;50.60;;;;;;4104906;28;20482;-71
2022/03/22 08:03:30;;;;;;;0.00;0.00;;;13.80;50.20;;;;;;4104910;28;20176;-74
2022/03/22 08:05:56;;;;;;;0.00;0.00;;;13.80;49.30;;;;;;4118337;28;20046;-73
2022/03/22 08:08:21;;;;;;;0.00;0.00;;;14.00;49.60;;;;;;4120505;28;20152;-73
2022/03/22 08:10:58;;;;;;;0.00;0.00;;;14.10;49.50;;;;;;4105046;28;20051;-72
2022/03/22 08:13:22;;;;;;;0.00;0.00;;;14.40;48.60;;;;;;4105025;28;20047;-73
2022/03/22 08:15:47;;;;;;;0.00;0.00;;;14.50;47.90;;;;;;4104818;28;20058;-72
2022/03/22 08:18:12;;;;;;;0.00;0.00;;;14.70;47.20;;;;;;4104374;28;20063;-73
2022/03/22 08:20:34;;;;;;;0.00;0.00;;;15.10;46.50;;;;;;4104663;28;20043;-73
2022/03/22 08:22:58;;;;;;;0.00;0.00;;;15.30;45.90;;;;;;4104558;28;20035;-73
2022/03/22 08:25:28;;;;;;;0.00;0.00;;;15.30;45.50;;;;;;4104564;28;20067;-71
2022/03/22 08:27:51;;;;;;;0.00;0.00;;;15.60;45.40;;;;;;4091119;28;20051;-74
2022/03/22 08:30:13;;;;;;;0.00;0.00;;;15.90;45.80;;;;;;4092086;28;20078;-73
2022/03/22 08:32:37;;;;;;;0.00;0.00;;;15.80;45.80;;;;;;4120697;28;20055;-72
2022/03/22 08:35:02;;;;;;;0.00;0.00;;;15.90;46.00;;;;;;4120319;28;20122;-73
2022/03/22 08:37:29;;;;;;;0.00;0.00;;;16.10;46.10;;;;;;4107507;28;20062;-75
2022/03/22 08:39:54;;;;;;;0.00;0.00;;;16.20;46.30;;;;;;4120368;28;20547;-73
2022/03/22 08:42:16;;;;;;;0.00;0.00;;;16.60;45.70;;;;;;4119840;28;20126;-73
2022/03/22 08:44:41;;;;;;;0.00;0.00;;;16.70;44.40;;;;;;4133742;28;20049;-73
2022/03/22 08:47:03;;;;;;;0.00;0.00;;;16.80;44.50;;;;;;4120107;28;20053;-71
2022/03/22 08:49:28;;;;;;;0.00;0.00;;;17.00;42.80;;;;;;4132922;28;20468;-73
2022/03/22 08:51:50;;;;;;;0.00;0.00;;;16.70;39.50;;;;;;4120170;28;20066;-74
2022/03/22 08:54:12;;;;;;;0.00;0.00;;;16.20;38.50;;;;;;4119770;28;20051;-69
2022/03/22 08:56:34;;;;;;;0.00;0.00;;;16.20;41.30;;;;;;4106955;28;20054;-72
2022/03/22 08:58:56;;;;;;;0.00;0.00;;;16.50;42.20;;;;;;4119973;28;20055;-76
2022/03/22 09:01:27;;;;;;;0.00;0.00;;;16.70;43.50;;;;;;4133646;28;20429;-72
2022/03/22 09:06:07;;;;;;;;;;;17.20;43.70;;;;;;4117831;28;20126;-73
2022/03/22 09:06:37;;;;;;;0.00;0.00;;;17.70;43.10;;;;;;4106090;28;19985;-72
2022/03/22 09:08:59;;;;;;;0.00;0.00;;;17.90;42.40;;;;;;4106588;28;20046;-72
2022/03/22 09:11:21;;;;;;;0.00;0.00;;;18.00;41.90;;;;;;4133604;28;20050;-73
2022/03/22 09:13:45;;;;;;;0.00;0.00;;;17.90;42.60;;;;;;4106771;28;20113;-71
2022/03/22 09:16:12;;;;;;;0.00;0.00;;;18.20;42.80;;;;;;4120031;28;20070;-75
2022/03/22 09:18:35;;;;;;;0.00;0.00;;;18.20;42.40;;;;;;4119908;28;20090;-73
2022/03/22 09:20:57;;;;;;;0.00;0.00;;;18.50;42.20;;;;;;4119815;28;20078;-73
2022/03/22 09:23:21;;;;;;;0.00;0.00;;;18.50;41.60;;;;;;4133319;28;20057;-71
2022/03/22 09:25:47;;;;;;;0.00;0.00;;;18.00;41.50;;;;;;4119693;28;20078;-72
2022/03/22 09:28:11;;;;;;;0.00;0.00;;;17.70;42.00;;;;;;4119110;28;20047;-72
2022/03/22 09:30:34;;;;;;;0.00;0.00;;;17.70;41.80;;;;;;4119627;28;20047;-69
2022/03/22 09:33:02;;;;;;;0.00;0.00;;;16.40;42.20;;;;;;4117176;28;20059;-71
2022/03/22 09:35:26;;;;;;;0.00;0.00;;;15.40;43.10;;;;;;4090572;28;20130;-73
2022/03/22 09:37:48;;;;;;;0.00;0.00;;;15.40;43.20;;;;;;4116819;28;20046;-72
2022/03/22 09:40:18;;;;;;;0.00;0.00;;;16.30;40.90;;;;;;4118672;28;20492;-72
2022/03/22 09:42:45;;;;;;;0.00;0.00;;;17.10;39.40;;;;;;4106088;28;20055;-71
2022/03/22 09:45:09;;;;;;;0.00;0.00;;;17.70;38.90;;;;;;4119373;28;20039;-70
2022/03/22 09:47:31;;;;;;;0.00;0.00;;;17.30;38.70;;;;;;4106093;28;20057;-74
2022/03/22 09:49:57;;;;;;;0.00;0.00;;;17.00;38.90;;;;;;4119062;28;20054;-71
2022/03/22 09:52:20;;;;;;;0.00;0.00;;;16.50;39.20;;;;;;4105618;28;20070;-73
2022/03/22 09:54:46;;;;;;;0.00;0.00;;;15.70;40.20;;;;;;4119619;28;20050;-72
2022/03/22 09:57:16;;;;;;;0.00;0.00;;;15.50;41.60;;;;;;4105808;28;20425;-70
2022/03/22 09:59:40;;;;;;;0.00;0.00;;;16.10;42.00;;;;;;4119219;28;20065;-73
2022/03/22 10:02:06;;;;;;;0.00;0.00;;;15.80;42.00;;;;;;4104431;28;20055;-72
2022/03/22 10:04:42;;;;;;;0.00;0.00;;;16.40;41.70;;;;;;4132165;28;20047;-73
2022/03/22 10:07:06;;;;;;;0.00;0.00;;;17.10;40.90;;;;;;4119413;28;20057;-72
2022/03/22 10:09:39;;;;;;;0.00;0.00;;;17.40;40.10;;;;;;4119009;28;20449;-71
2022/03/22 10:12:01;;;;;;;0.00;0.00;;;17.90;40.40;;;;;;4118720;28;20496;-73
2022/03/22 10:14:34;;;;;;;0.00;0.00;;;18.70;39.60;;;;;;4118571;28;20052;-71
2022/03/22 10:16:56;;;;;;;0.00;0.00;;;19.40;38.80;;;;;;4118856;28;20054;-71
2022/03/22 10:19:24;;;;;;;0.00;0.00;;;19.80;39.00;;;;;;4118965;28;20359;-72
2022/03/22 10:21:46;;;;;;;0.00;0.00;;;20.20;38.90;;;;;;4118639;28;20039;-72
2022/03/22 10:24:15;;;;;;;0.00;0.00;;;20.50;38.60;;;;;;4118260;28;20058;-73
2022/03/22 10:26:37;;;;;;;0.00;0.00;;;20.20;38.10;;;;;;4118588;28;20117;-71
2022/03/22 10:28:59;;;;;;;0.00;0.00;;;19.50;38.70;;;;;;4118655;28;20074;-72
2022/03/22 10:31:34;;;;;;;0.00;0.00;;;19.70;39.10;;;;;;4105116;28;20130;-71
2022/03/22 10:33:57;;;;;;;0.00;0.00;;;20.70;38.50;;;;;;4118970;28;20654;-73
2022/03/22 10:36:21;;;;;;;0.00;0.00;;;20.70;37.70;;;;;;4118329;28;20066;-73
2022/03/22 10:38:57;;;;;;;0.00;0.00;;;21.10;37.10;;;;;;4118816;28;20109;-72
2022/03/22 10:41:25;;;;;;;0.00;0.00;;;21.60;36.70;;;;;;4105868;28;20054;-73
2022/03/22 10:43:47;;;;;;;0.00;0.00;;;21.70;34.80;;;;;;4118611;28;20046;-72
2022/03/22 10:46:16;;;;;;;0.00;0.00;;;20.60;34.90;;;;;;4118124;28;20093;-71
2022/03/22 10:48:40;;;;;;;0.00;0.00;;;19.90;36.00;;;;;;4091830;28;20047;-72
2022/03/22 10:51:06;;;;;;;0.00;0.00;;;19.60;36.20;;;;;;4118887;28;20460;-72
2022/03/22 10:53:31;;;;;;;0.00;0.00;;;19.20;36.10;;;;;;4118542;28;20038;-73
2022/03/22 10:55:57;;;;;;;0.00;0.00;;;19.10;36.60;;;;;;4118379;28;20130;-71
2022/03/22 10:58:25;;;;;;;0.00;0.00;;;18.80;36.50;;;;;;4101754;28;20055;-71
2022/03/22 11:00:48;;;;;;;0.00;0.00;;;18.40;35.80;;;;;;4099725;28;20071;-71
2022/03/22 11:03:13;;;;;;;0.00;0.00;;;18.80;36.20;;;;;;4073548;29;20039;-73
2022/03/22 11:05:36;;;;;;;0.00;0.00;;;19.30;35.30;;;;;;4085314;28;20054;-73
2022/03/22 11:08:04;;;;;;;0.00;0.00;;;19.70;34.10;;;;;;4089392;28;20077;-71
2022/03/22 11:10:31;;;;;;;0.00;0.00;;;19.50;33.90;;;;;;4101817;28;20054;-72
2022/03/22 11:12:53;;;;;;;0.00;0.00;;;19.00;34.20;;;;;;4103136;28;20047;-71
2022/03/22 11:15:18;;;;;;;0.00;0.00;;;19.00;35.20;;;;;;4105638;28;20047;-71
2022/03/22 11:17:44;;;;;;;0.00;0.00;;;18.80;35.50;;;;;;4105647;28;20074;-72
2022/03/22 11:20:09;;;;;;;0.00;0.00;;;18.80;36.20;;;;;;4102858;28;20063;-72
2022/03/22 11:22:32;;;;;;;0.00;0.00;;;18.90;36.60;;;;;;4105588;28;20075;-73
2022/03/22 11:25:09;;;;;;;0.00;0.00;;;19.90;36.30;;;;;;4098633;28;20083;-71
2022/03/22 11:27:31;;;;;;;0.00;0.00;;;20.90;34.80;;;;;;4101366;28;20389;-72
2022/03/22 11:29:58;;;;;;;0.00;0.00;;;21.60;34.50;;;;;;4118389;28;20541;-75
2022/03/22 11:35:24;;;;;;;0.00;0.00;;;21.50;33.30;;;;;;4094539;28;20111;-74
2022/03/22 11:37:55;;;;;;;0.00;0.00;;;21.30;33.10;;;;;;4105303;28;20485;-73
2022/03/22 11:43:00;;;;;;;0.00;0.00;;;20.80;34.20;;;;;;4111239;28;20081;-76
2022/03/22 11:45:27;;;;;;;0.00;0.00;;;21.10;33.70;;;;;;4076161;29;20120;-73
2022/03/22 11:47:54;;;;;;;0.00;0.00;;;21.70;33.80;;;;;;4076071;29;20055;-73
2022/03/22 11:50:20;;;;;;;0.00;0.00;;;22.20;32.90;;;;;;4104464;28;20066;-72
2022/03/22 11:52:48;;;;;;;0.00;0.00;;;21.60;32.80;;;;;;4104753;28;20371;-71
2022/03/22 11:55:12;;;;;;;0.00;0.00;;;22.10;32.90;;;;;;4091602;28;20055;-73
2022/03/22 11:57:56;;;;;;;0.00;0.00;;;22.90;32.40;;;;;;4104832;28;20051;-73
2022/03/22 12:00:39;;;;;;;0.00;0.00;;;23.80;31.70;;;;;;4062673;28;20124;-72
2022/03/22 12:03:09;;;;;;;0.00;0.00;;;23.10;31.20;;;;;;4089148;29;20051;-72
2022/03/22 12:05:31;;;;;;;0.00;0.00;;;22.20;32.40;;;;;;4088900;29;20516;-72
2022/03/22 12:07:53;;;;;;;0.00;0.00;;;22.20;32.50;;;;;;4075928;29;20048;-73
2022/03/22 12:10:17;;;;;;;0.00;0.00;;;21.70;32.90;;;;;;4088436;28;20438;-72
2022/03/22 12:12:48;;;;;;;0.00;0.00;;;21.40;33.50;;;;;;4102375;29;20047;-72
2022/03/22 12:15:18;;;;;;;0.00;0.00;;;20.80;34.60;;;;;;4075738;29;20063;-72
2022/03/22 12:17:40;;;;;;;0.00;0.00;;;20.40;35.70;;;;;;4089064;29;20371;-70
2022/03/22 12:20:13;;;;;;;0.00;0.00;;;21.30;35.30;;;;;;4088973;28;20060;-69
2022/03/22 12:22:40;;;;;;;0.00;0.00;;;22.10;34.80;;;;;;4089168;29;20594;-72
2022/03/22 12:25:02;;;;;;;0.00;0.00;;;22.20;34.10;;;;;;4100860;28;20504;-71
2022/03/22 12:27:27;;;;;;;0.00;0.00;;;22.50;34.40;;;;;;4102124;29;20044;-74
2022/03/22 12:29:56;;;;;;;0.00;0.00;;;23.00;32.60;;;;;;4076113;29;20051;-73
2022/03/22 12:32:26;;;;;;;0.00;0.00;;;23.20;31.70;;;;;;4088053;28;20052;-73
2022/03/22 12:34:49;;;;;;;0.00;0.00;;;23.40;31.40;;;;;;4088753;29;20130;-71
2022/03/22 12:37:12;;;;;;;0.00;0.00;;;24.00;30.10;;;;;;4088627;29;20542;-74
2022/03/22 12:39:37;;;;;;;0.00;0.00;;;24.40;29.80;;;;;;4075581;29;20048;-75
2022/03/22 12:41:59;;;;;;;0.00;0.00;;;24.50;30.00;;;;;;4088832;29;20059;-73
2022/03/22 12:44:23;;;;;;;0.00;0.00;;;24.70;30.40;;;;;;4062012;28;20063;-74
2022/03/22 12:46:47;;;;;;;0.00;0.00;;;25.00;30.20;;;;;;4075478;29;20513;-72
2022/03/22 12:49:09;;;;;;;0.00;0.00;;;25.00;30.00;;;;;;4075170;29;20066;-72
2022/03/22 12:51:36;;;;;;;0.00;0.00;;;25.10;30.20;;;;;;4088468;29;20050;-74
2022/03/22 12:54:03;;;;;;;0.00;0.00;;;25.10;29.90;;;;;;4075641;29;20059;-73
2022/03/22 12:56:25;;;;;;;0.00;0.00;;;25.20;29.60;;;;;;4088101;29;20354;-72
2022/03/22 12:59:23;;;;;;;0.00;0.00;;;25.10;29.60;;;;;;4088810;29;20111;-72
2022/03/22 13:01:45;;;;;;;0.00;0.00;;;25.20;29.30;;;;;;4089053;29;20099;-73
2022/03/22 13:04:08;;;;;;;0.00;0.00;;;25.00;29.50;;;;;;4088415;28;20051;-72
2022/03/22 13:06:36;;;;;;;0.00;0.00;;;25.00;29.10;;;;;;4075289;29;20072;-73
2022/03/22 13:11:41;;;;;;;0.00;0.00;;;24.10;29.80;;;;;;4088326;29;20142;-74
2022/03/22 13:16:55;;;;;;;0.00;0.00;;;22.20;30.90;;;;;;4087752;29;20063;-72
2022/03/22 13:19:22;;;;;;;0.00;0.00;;;22.60;30.60;;;;;;4088327;29;20474;-73
2022/03/22 13:21:44;;;;;;;0.00;0.00;;;22.70;30.50;;;;;;4074745;29;20060;-72